Terminal Aerodrome Forecast
Issued by NWS

Current Version | Previous Version | Text Only | Print | Product List | Glossary On
Versions: 1 2 3 4 5 6 7 8 9 10 11 12
290
FTUS45 KRIW 241122
TAFRKS
TAF
KRKS 241122Z 2412/2512 26016KT P6SM BKN080
     FM241900 26022G32KT P6SM SCT050 BKN080
     FM250200 26016KT P6SM SCT080=

USA.gov is the U.S. government's official web portal to all federal, state and local government web resources and services.